SBI4101 UWKD-UDYZ
Flight info
| Callsign | SBI4101 |
|---|---|
| Flight time | 2h 27m |
| Altitude | 36000 |
| Route | SONUM T789 DAFOS P135 UROBO R807 NIRGA A835 GUSLI L125 OGEVI T918 TIBLO TIBL3B |
| Aircraft | A310/H-V/N |
Departure
| Time | 2026-05-07 18:04 |
|---|---|
| Airport | Kazan International Airport (UWKD) |
Arrival
| Time | 2026-05-07 20:32 |
|---|---|
| Airport | Zvartnots International Airport (UDYZ) |
| Time | Latitude | Longitude | Altitude | Speed | Heading |
|---|---|---|---|---|---|
| 2026-05-07 17:08 | 55.60679 | 49.29664 | 409 ft | 0 kts | 36° |
| 2026-05-07 17:40 | 55.60685 | 49.29671 | 413 ft | 4 kts | 36° |
| 2026-05-07 17:40 | 55.60736 | 49.29669 | 413 ft | 11 kts | 317° |
| 2026-05-07 17:40 | 55.60799 | 49.29519 | 408 ft | 16 kts | 305° |
| 2026-05-07 17:40 | 55.60778 | 49.29382 | 412 ft | 12 kts | 215° |
| 2026-05-07 17:41 | 55.60708 | 49.29298 | 409 ft | 12 kts | 214° |
| 2026-05-07 17:41 | 55.60640 | 49.29216 | 410 ft | 12 kts | 214° |
| 2026-05-07 17:41 | 55.60583 | 49.29101 | 409 ft | 13 kts | 249° |
| 2026-05-07 17:41 | 55.60580 | 49.28952 | 412 ft | 12 kts | 273° |
| 2026-05-07 17:42 | 55.60586 | 49.28806 | 406 ft | 12 kts | 274° |
| 2026-05-07 17:42 | 55.60593 | 49.28664 | 412 ft | 12 kts | 276° |
| 2026-05-07 17:42 | 55.60623 | 49.28538 | 409 ft | 11 kts | 303° |
| 2026-05-07 17:42 | 55.60665 | 49.28427 | 410 ft | 11 kts | 305° |
| 2026-05-07 17:43 | 55.60706 | 49.28322 | 411 ft | 11 kts | 304° |
| 2026-05-07 17:43 | 55.60754 | 49.28198 | 404 ft | 13 kts | 304° |
| 2026-05-07 17:43 | 55.60810 | 49.28052 | 410 ft | 15 kts | 304° |
| 2026-05-07 17:43 | 55.60874 | 49.27887 | 406 ft | 17 kts | 304° |
| 2026-05-07 17:44 | 55.60953 | 49.27686 | 407 ft | 21 kts | 304° |
| 2026-05-07 17:44 | 55.61036 | 49.27473 | 408 ft | 21 kts | 304° |
| 2026-05-07 17:44 | 55.61115 | 49.27267 | 408 ft | 20 kts | 304° |
| 2026-05-07 17:44 | 55.61172 | 49.27123 | 412 ft | 2 kts | 305° |
| 2026-05-07 17:45 | 55.61172 | 49.27122 | 412 ft | 0 kts | 305° |
| 2026-05-07 17:46 | 55.61193 | 49.27069 | 408 ft | 10 kts | 303° |
| 2026-05-07 17:46 | 55.61252 | 49.26914 | 407 ft | 20 kts | 304° |
| 2026-05-07 17:46 | 55.61335 | 49.26700 | 409 ft | 21 kts | 304° |
| 2026-05-07 17:46 | 55.61417 | 49.26492 | 411 ft | 20 kts | 305° |
| 2026-05-07 17:47 | 55.61494 | 49.26290 | 407 ft | 20 kts | 304° |
| 2026-05-07 17:47 | 55.61578 | 49.26073 | 411 ft | 23 kts | 304° |
| 2026-05-07 17:47 | 55.61667 | 49.25841 | 412 ft | 22 kts | 304° |
| 2026-05-07 17:47 | 55.61753 | 49.25620 | 412 ft | 20 kts | 304° |
| 2026-05-07 17:48 | 55.61821 | 49.25448 | 411 ft | 12 kts | 305° |
| 2026-05-07 17:48 | 55.61845 | 49.25386 | 409 ft | 0 kts | 302° |
| 2026-05-07 17:48 | 55.61846 | 49.25384 | 410 ft | 0 kts | 302° |
| 2026-05-07 17:57 | 55.61847 | 49.25379 | 412 ft | 2 kts | 299° |
| 2026-05-07 17:57 | 55.61852 | 49.25353 | 412 ft | 4 kts | 285° |
| 2026-05-07 17:57 | 55.61853 | 49.25349 | 412 ft | 0 kts | 283° |
| 2026-05-07 17:58 | 55.61853 | 49.25326 | 412 ft | 6 kts | 269° |
| 2026-05-07 17:58 | 55.61820 | 49.25252 | 412 ft | 8 kts | 214° |
| 2026-05-07 17:59 | 55.61805 | 49.25233 | 412 ft | 0 kts | 214° |
| 2026-05-07 18:02 | 55.61799 | 49.25226 | 412 ft | 4 kts | 214° |
| 2026-05-07 18:02 | 55.61748 | 49.25165 | 408 ft | 14 kts | 212° |
| 2026-05-07 18:02 | 55.61669 | 49.25182 | 410 ft | 4 kts | 125° |
| 2026-05-07 18:03 | 55.61669 | 49.25183 | 410 ft | 0 kts | 125° |
| 2026-05-07 18:03 | 55.61614 | 49.25324 | 409 ft | 36 kts | 124° |
| 2026-05-07 18:03 | 55.61354 | 49.25988 | 409 ft | 95 kts | 124° |
| 2026-05-07 18:04 | 55.60883 | 49.27209 | 409 ft | 144 kts | 124° |
| 2026-05-07 18:04 | 55.60256 | 49.28857 | 574 ft | 168 kts | 123° |
| 2026-05-07 18:04 | 55.59590 | 49.30636 | 908 ft | 182 kts | 123° |
| 2026-05-07 18:04 | 55.58841 | 49.32586 | 1277 ft | 196 kts | 124° |
| 2026-05-07 18:05 | 55.58338 | 49.33885 | 1806 ft | 191 kts | 124° |
| 2026-05-07 18:05 | 55.57550 | 49.35865 | 2383 ft | 203 kts | 124° |
| 2026-05-07 18:05 | 55.56730 | 49.37964 | 2883 ft | 213 kts | 124° |
| 2026-05-07 18:05 | 55.55554 | 49.40915 | 3510 ft | 232 kts | 124° |
| 2026-05-07 18:06 | 55.54499 | 49.43191 | 3884 ft | 253 kts | 143° |
| 2026-05-07 18:06 | 55.53423 | 49.44115 | 3951 ft | 257 kts | 167° |
| 2026-05-07 18:06 | 55.51643 | 49.43917 | 4010 ft | 262 kts | 203° |
| 2026-05-07 18:06 | 55.50228 | 49.41954 | 4019 ft | 262 kts | 233° |
| 2026-05-07 18:07 | 55.49108 | 49.39366 | 4013 ft | 268 kts | 230° |
| 2026-05-07 18:07 | 55.47793 | 49.37075 | 4008 ft | 270 kts | 220° |
| 2026-05-07 18:07 | 55.46265 | 49.35126 | 4652 ft | 270 kts | 213° |
| 2026-05-07 18:07 | 55.44610 | 49.33420 | 5481 ft | 274 kts | 209° |
| 2026-05-07 18:08 | 55.42905 | 49.31878 | 6312 ft | 277 kts | 207° |
| 2026-05-07 18:08 | 55.41155 | 49.30408 | 7091 ft | 282 kts | 206° |
| 2026-05-07 18:08 | 55.39336 | 49.28937 | 7557 ft | 289 kts | 205° |
| 2026-05-07 18:08 | 55.37522 | 49.27518 | 7784 ft | 289 kts | 205° |
| 2026-05-07 18:09 | 55.35682 | 49.26088 | 7906 ft | 289 kts | 205° |
| 2026-05-07 18:09 | 55.33816 | 49.24639 | 7942 ft | 290 kts | 205° |
| 2026-05-07 18:09 | 55.31995 | 49.23225 | 7958 ft | 289 kts | 205° |
| 2026-05-07 18:09 | 55.30160 | 49.21802 | 7967 ft | 289 kts | 205° |
| 2026-05-07 18:10 | 55.28320 | 49.20375 | 7967 ft | 289 kts | 205° |
| 2026-05-07 18:10 | 55.26482 | 49.18948 | 7984 ft | 289 kts | 205° |
| 2026-05-07 18:10 | 55.24646 | 49.17523 | 7981 ft | 289 kts | 205° |
| 2026-05-07 18:10 | 55.22810 | 49.16096 | 7985 ft | 288 kts | 205° |
| 2026-05-07 18:11 | 55.20974 | 49.14669 | 7973 ft | 289 kts | 205° |
| 2026-05-07 18:11 | 55.19123 | 49.13227 | 7979 ft | 292 kts | 205° |
| 2026-05-07 18:11 | 55.17271 | 49.11775 | 7973 ft | 292 kts | 206° |
| 2026-05-07 18:11 | 55.15472 | 49.10121 | 8177 ft | 294 kts | 210° |
| 2026-05-07 18:12 | 55.13706 | 49.08370 | 9154 ft | 291 kts | 211° |
| 2026-05-07 18:12 | 55.11936 | 49.06607 | 10016 ft | 294 kts | 211° |
| 2026-05-07 18:12 | 55.10154 | 49.04834 | 10803 ft | 296 kts | 211° |
| 2026-05-07 18:12 | 55.08354 | 49.03041 | 11578 ft | 299 kts | 211° |
| 2026-05-07 18:13 | 55.06541 | 49.01214 | 12334 ft | 303 kts | 211° |
| 2026-05-07 18:13 | 55.04700 | 48.99383 | 13102 ft | 306 kts | 211° |
| 2026-05-07 18:13 | 55.02846 | 48.97525 | 13843 ft | 309 kts | 211° |
| 2026-05-07 18:13 | 55.00972 | 48.95655 | 14516 ft | 312 kts | 211° |
| 2026-05-07 18:14 | 54.99079 | 48.93767 | 15183 ft | 315 kts | 211° |
| 2026-05-07 18:14 | 54.97169 | 48.91861 | 15869 ft | 318 kts | 211° |
| 2026-05-07 18:14 | 54.95244 | 48.89939 | 16532 ft | 321 kts | 211° |
| 2026-05-07 18:14 | 54.93288 | 48.87984 | 17082 ft | 325 kts | 211° |
| 2026-05-07 18:15 | 54.91316 | 48.86023 | 17638 ft | 329 kts | 211° |
| 2026-05-07 18:15 | 54.89308 | 48.84034 | 18196 ft | 335 kts | 211° |
| 2026-05-07 18:15 | 54.87270 | 48.81999 | 18683 ft | 341 kts | 211° |
| 2026-05-07 18:15 | 54.85192 | 48.79951 | 19195 ft | 346 kts | 211° |
| 2026-05-07 18:16 | 54.83084 | 48.77847 | 19661 ft | 354 kts | 211° |
| 2026-05-07 18:16 | 54.80893 | 48.75698 | 19838 ft | 369 kts | 210° |
| 2026-05-07 18:16 | 54.78605 | 48.73463 | 19938 ft | 387 kts | 210° |
| 2026-05-07 18:16 | 54.76234 | 48.71143 | 19950 ft | 406 kts | 210° |
| 2026-05-07 18:17 | 54.73724 | 48.68688 | 19975 ft | 424 kts | 210° |
| 2026-05-07 18:17 | 54.71106 | 48.66121 | 19977 ft | 440 kts | 211° |
| 2026-05-07 18:17 | 54.68412 | 48.63457 | 19962 ft | 448 kts | 210° |
| 2026-05-07 18:17 | 54.65695 | 48.60791 | 19962 ft | 449 kts | 210° |
| 2026-05-07 18:18 | 54.62974 | 48.58127 | 19966 ft | 450 kts | 210° |
| 2026-05-07 18:18 | 54.60248 | 48.55461 | 19966 ft | 450 kts | 210° |
| 2026-05-07 18:18 | 54.57529 | 48.52804 | 19961 ft | 450 kts | 210° |
| 2026-05-07 18:18 | 54.54811 | 48.50151 | 19965 ft | 450 kts | 210° |
| 2026-05-07 18:19 | 54.52076 | 48.47486 | 19961 ft | 450 kts | 210° |
| 2026-05-07 18:19 | 54.49351 | 48.44833 | 19973 ft | 451 kts | 210° |
| 2026-05-07 18:19 | 54.46614 | 48.42170 | 19971 ft | 451 kts | 210° |
| 2026-05-07 18:19 | 54.43886 | 48.39518 | 19962 ft | 451 kts | 210° |
| 2026-05-07 18:20 | 54.41156 | 48.36871 | 19962 ft | 451 kts | 210° |
| 2026-05-07 18:20 | 54.38415 | 48.34243 | 20464 ft | 451 kts | 210° |
| 2026-05-07 18:20 | 54.35666 | 48.31596 | 21062 ft | 453 kts | 210° |
| 2026-05-07 18:20 | 54.32912 | 48.28938 | 21552 ft | 457 kts | 210° |
| 2026-05-07 18:21 | 54.30129 | 48.26276 | 22083 ft | 460 kts | 210° |
| 2026-05-07 18:21 | 54.27321 | 48.23589 | 22598 ft | 463 kts | 210° |
| 2026-05-07 18:21 | 54.24449 | 48.21044 | 23113 ft | 467 kts | 205° |
| 2026-05-07 18:21 | 54.21467 | 48.18767 | 23598 ft | 470 kts | 203° |
| 2026-05-07 18:22 | 54.18448 | 48.16565 | 24023 ft | 474 kts | 203° |
| 2026-05-07 18:22 | 54.16442 | 48.15083 | 24301 ft | 476 kts | 204° |
| 2026-05-07 18:22 | 54.12358 | 48.12025 | 24787 ft | 483 kts | 204° |
| 2026-05-07 18:22 | 54.09290 | 48.09664 | 24886 ft | 484 kts | 204° |
| 2026-05-07 18:23 | 54.06212 | 48.07327 | 24939 ft | 485 kts | 204° |
| 2026-05-07 18:23 | 54.03126 | 48.05005 | 24965 ft | 485 kts | 204° |
| 2026-05-07 18:23 | 54.00049 | 48.02651 | 24963 ft | 485 kts | 204° |
| 2026-05-07 18:23 | 53.96957 | 48.00319 | 24969 ft | 486 kts | 204° |
| 2026-05-07 18:24 | 53.93865 | 47.97996 | 24965 ft | 486 kts | 204° |
| 2026-05-07 18:24 | 53.90781 | 47.95659 | 24971 ft | 486 kts | 204° |
| 2026-05-07 18:24 | 53.87685 | 47.93343 | 24972 ft | 486 kts | 204° |
| 2026-05-07 18:24 | 53.84592 | 47.91007 | 24976 ft | 486 kts | 204° |
| 2026-05-07 18:25 | 53.81498 | 47.88856 | 24969 ft | 486 kts | 198° |
| 2026-05-07 18:25 | 53.78238 | 47.87362 | 24976 ft | 486 kts | 192° |
| 2026-05-07 18:25 | 53.74922 | 47.86190 | 24972 ft | 486 kts | 191° |
| 2026-05-07 18:25 | 53.71613 | 47.85030 | 24972 ft | 486 kts | 192° |
| 2026-05-07 18:26 | 53.68337 | 47.83582 | 24971 ft | 487 kts | 198° |
| 2026-05-07 18:26 | 53.65177 | 47.81545 | 24969 ft | 487 kts | 202° |
| 2026-05-07 18:26 | 53.62063 | 47.79291 | 24966 ft | 487 kts | 203° |
| 2026-05-07 18:26 | 53.58940 | 47.77069 | 24966 ft | 487 kts | 202° |
| 2026-05-07 18:27 | 53.55794 | 47.74926 | 24987 ft | 488 kts | 201° |
| 2026-05-07 18:27 | 53.52633 | 47.72834 | 25522 ft | 487 kts | 201° |
| 2026-05-07 18:27 | 53.49485 | 47.70762 | 26097 ft | 487 kts | 201° |
| 2026-05-07 18:27 | 53.46361 | 47.68552 | 26671 ft | 486 kts | 205° |
| 2026-05-07 18:28 | 53.43362 | 47.65951 | 27284 ft | 484 kts | 209° |
| 2026-05-07 18:28 | 53.40430 | 47.63183 | 27888 ft | 483 kts | 210° |
| 2026-05-07 18:28 | 53.37506 | 47.60439 | 28496 ft | 482 kts | 209° |
| 2026-05-07 18:28 | 53.34568 | 47.57761 | 29093 ft | 480 kts | 208° |
| 2026-05-07 18:29 | 53.31623 | 47.55113 | 29687 ft | 479 kts | 208° |
| 2026-05-07 18:29 | 53.28729 | 47.52522 | 30235 ft | 478 kts | 208° |
| 2026-05-07 18:29 | 53.25799 | 47.49908 | 30731 ft | 477 kts | 208° |
| 2026-05-07 18:29 | 53.22883 | 47.47312 | 31235 ft | 475 kts | 208° |
| 2026-05-07 18:30 | 53.19966 | 47.44724 | 31705 ft | 474 kts | 208° |
| 2026-05-07 18:30 | 53.17035 | 47.42128 | 31836 ft | 477 kts | 208° |
| 2026-05-07 18:30 | 53.14116 | 47.39547 | 31940 ft | 474 kts | 208° |
| 2026-05-07 18:31 | 53.08276 | 47.34341 | 31977 ft | 483 kts | 208° |
| 2026-05-07 18:31 | 53.02265 | 47.29033 | 32196 ft | 490 kts | 208° |
| 2026-05-07 18:31 | 52.99270 | 47.26371 | 32758 ft | 487 kts | 208° |
| 2026-05-07 18:32 | 52.96281 | 47.23718 | 33264 ft | 486 kts | 208° |
| 2026-05-07 18:32 | 52.93301 | 47.21103 | 33776 ft | 484 kts | 208° |
| 2026-05-07 18:32 | 52.90326 | 47.18500 | 34214 ft | 482 kts | 208° |
| 2026-05-07 18:32 | 52.87371 | 47.15884 | 34599 ft | 481 kts | 208° |
| 2026-05-07 18:33 | 52.84414 | 47.13304 | 34959 ft | 480 kts | 208° |
| 2026-05-07 18:33 | 52.81464 | 47.10719 | 35293 ft | 480 kts | 208° |
| 2026-05-07 18:33 | 52.78510 | 47.08150 | 35627 ft | 480 kts | 208° |
| 2026-05-07 18:33 | 52.75544 | 47.05588 | 35823 ft | 482 kts | 208° |
| 2026-05-07 18:34 | 52.72572 | 47.02979 | 35919 ft | 482 kts | 208° |
| 2026-05-07 18:34 | 52.66656 | 46.97841 | 35946 ft | 480 kts | 208° |
| 2026-05-07 18:35 | 52.60747 | 46.92725 | 35949 ft | 480 kts | 208° |
| 2026-05-07 18:35 | 52.54835 | 46.87618 | 35949 ft | 480 kts | 208° |
| 2026-05-07 18:36 | 52.48912 | 46.82526 | 35949 ft | 481 kts | 208° |
| 2026-05-07 18:36 | 52.42983 | 46.77431 | 35949 ft | 481 kts | 208° |
| 2026-05-07 18:37 | 52.37044 | 46.72357 | 35945 ft | 482 kts | 208° |
| 2026-05-07 18:37 | 52.31146 | 46.67321 | 35948 ft | 482 kts | 208° |
| 2026-05-07 18:38 | 52.25201 | 46.62259 | 35948 ft | 482 kts | 208° |
| 2026-05-07 18:38 | 52.19250 | 46.57206 | 35945 ft | 482 kts | 208° |
| 2026-05-07 18:39 | 52.13287 | 46.52191 | 35939 ft | 482 kts | 207° |
| 2026-05-07 18:39 | 52.07336 | 46.47152 | 35942 ft | 482 kts | 208° |
| 2026-05-07 18:40 | 52.01368 | 46.42141 | 35936 ft | 482 kts | 208° |
| 2026-05-07 18:40 | 51.95389 | 46.37165 | 35938 ft | 483 kts | 208° |
| 2026-05-07 18:41 | 51.89430 | 46.32169 | 35943 ft | 483 kts | 207° |
| 2026-05-07 18:41 | 51.83452 | 46.27177 | 35943 ft | 483 kts | 208° |
| 2026-05-07 18:42 | 51.77459 | 46.22243 | 35935 ft | 483 kts | 208° |
| 2026-05-07 18:42 | 51.71483 | 46.17275 | 35939 ft | 483 kts | 207° |
| 2026-05-07 18:43 | 51.65500 | 46.12324 | 35937 ft | 484 kts | 208° |
| 2026-05-07 18:43 | 51.59506 | 46.07399 | 35944 ft | 484 kts | 208° |
| 2026-05-07 18:44 | 51.53530 | 46.02588 | 35947 ft | 483 kts | 206° |
| 2026-05-07 18:44 | 51.47436 | 45.97983 | 35942 ft | 484 kts | 206° |
| 2026-05-07 18:45 | 51.41353 | 45.93335 | 35944 ft | 484 kts | 206° |
| 2026-05-07 18:45 | 51.35270 | 45.88691 | 35944 ft | 484 kts | 206° |
| 2026-05-07 18:46 | 51.29175 | 45.84095 | 35947 ft | 485 kts | 206° |
| 2026-05-07 18:46 | 51.23074 | 45.79468 | 35955 ft | 485 kts | 206° |
| 2026-05-07 18:47 | 51.16965 | 45.74867 | 35952 ft | 486 kts | 206° |
| 2026-05-07 18:47 | 51.10850 | 45.70271 | 35958 ft | 486 kts | 206° |
| 2026-05-07 18:48 | 51.04722 | 45.65700 | 35958 ft | 487 kts | 206° |
| 2026-05-07 18:48 | 50.98333 | 45.62243 | 35965 ft | 487 kts | 191° |
| 2026-05-07 18:49 | 50.91654 | 45.60358 | 35958 ft | 487 kts | 191° |
| 2026-05-07 18:49 | 50.85074 | 45.58082 | 35956 ft | 488 kts | 193° |
| 2026-05-07 18:50 | 50.78459 | 45.55667 | 35955 ft | 488 kts | 193° |
| 2026-05-07 18:50 | 50.71834 | 45.53337 | 35966 ft | 488 kts | 193° |
| 2026-05-07 18:51 | 50.65207 | 45.51022 | 35965 ft | 488 kts | 193° |
| 2026-05-07 18:51 | 50.59689 | 45.49101 | 35963 ft | 488 kts | 193° |
| 2026-05-07 18:52 | 50.53048 | 45.46796 | 35965 ft | 488 kts | 193° |
| 2026-05-07 18:52 | 50.46422 | 45.44505 | 35967 ft | 488 kts | 192° |
| 2026-05-07 18:53 | 50.39782 | 45.42218 | 35971 ft | 488 kts | 192° |
| 2026-05-07 18:53 | 50.33154 | 45.39945 | 35965 ft | 488 kts | 192° |
| 2026-05-07 18:54 | 50.26524 | 45.37680 | 35973 ft | 488 kts | 192° |
| 2026-05-07 18:54 | 50.19893 | 45.35424 | 35978 ft | 488 kts | 192° |
| 2026-05-07 18:55 | 50.13266 | 45.33179 | 35977 ft | 487 kts | 192° |
| 2026-05-07 18:55 | 50.06641 | 45.30944 | 35975 ft | 487 kts | 192° |
| 2026-05-07 18:56 | 50.00029 | 45.28613 | 35976 ft | 487 kts | 195° |
| 2026-05-07 18:56 | 49.93520 | 45.25688 | 35978 ft | 487 kts | 197° |
| 2026-05-07 18:57 | 49.87013 | 45.22748 | 35982 ft | 487 kts | 196° |
| 2026-05-07 18:57 | 49.80502 | 45.19868 | 35980 ft | 487 kts | 195° |
| 2026-05-07 18:58 | 49.73980 | 45.17016 | 35986 ft | 487 kts | 196° |
| 2026-05-07 18:58 | 49.67467 | 45.14162 | 35983 ft | 486 kts | 195° |
| 2026-05-07 18:59 | 49.60988 | 45.11395 | 35982 ft | 487 kts | 196° |
| 2026-05-07 18:59 | 49.54472 | 45.08545 | 35985 ft | 487 kts | 196° |
| 2026-05-07 19:00 | 49.47948 | 45.05750 | 35992 ft | 487 kts | 196° |
| 2026-05-07 19:00 | 49.41432 | 45.02932 | 35990 ft | 487 kts | 195° |
| 2026-05-07 19:01 | 49.34911 | 45.00143 | 35991 ft | 487 kts | 196° |
| 2026-05-07 19:01 | 49.28389 | 44.97355 | 35995 ft | 486 kts | 195° |
| 2026-05-07 19:02 | 49.21872 | 44.94564 | 35993 ft | 486 kts | 196° |
| 2026-05-07 19:02 | 49.15354 | 44.91802 | 35998 ft | 486 kts | 196° |
| 2026-05-07 19:03 | 49.08839 | 44.89026 | 36000 ft | 486 kts | 195° |
| 2026-05-07 19:03 | 49.02325 | 44.86279 | 35999 ft | 486 kts | 195° |
| 2026-05-07 19:04 | 48.95801 | 44.83523 | 36000 ft | 486 kts | 195° |
| 2026-05-07 19:04 | 48.89316 | 44.80789 | 36000 ft | 486 kts | 195° |
| 2026-05-07 19:05 | 48.82792 | 44.78030 | 36004 ft | 487 kts | 197° |
| 2026-05-07 19:05 | 48.76341 | 44.74900 | 36002 ft | 487 kts | 198° |
| 2026-05-07 19:06 | 48.69913 | 44.71639 | 36001 ft | 486 kts | 199° |
| 2026-05-07 19:06 | 48.60275 | 44.66830 | 36006 ft | 486 kts | 198° |
| 2026-05-07 19:07 | 48.53847 | 44.63648 | 36000 ft | 486 kts | 198° |
| 2026-05-07 19:07 | 48.47416 | 44.60497 | 36010 ft | 486 kts | 198° |
| 2026-05-07 19:08 | 48.40988 | 44.57356 | 36007 ft | 486 kts | 198° |
| 2026-05-07 19:08 | 48.34566 | 44.54208 | 36012 ft | 485 kts | 198° |
| 2026-05-07 19:09 | 48.28149 | 44.51070 | 36014 ft | 485 kts | 198° |
| 2026-05-07 19:09 | 48.21723 | 44.47938 | 36012 ft | 485 kts | 198° |
| 2026-05-07 19:10 | 48.15299 | 44.44817 | 36016 ft | 485 kts | 198° |
| 2026-05-07 19:10 | 48.08872 | 44.41721 | 36017 ft | 486 kts | 198° |
| 2026-05-07 19:11 | 48.02441 | 44.38617 | 36015 ft | 486 kts | 198° |
| 2026-05-07 19:11 | 47.96009 | 44.35501 | 36019 ft | 486 kts | 198° |
| 2026-05-07 19:12 | 47.89512 | 44.32678 | 36020 ft | 486 kts | 193° |
| 2026-05-07 19:12 | 47.82915 | 44.30431 | 36016 ft | 487 kts | 193° |
| 2026-05-07 19:13 | 47.76326 | 44.28088 | 36012 ft | 487 kts | 194° |
| 2026-05-07 19:13 | 47.69738 | 44.25720 | 36023 ft | 487 kts | 193° |
| 2026-05-07 19:14 | 47.63148 | 44.23351 | 36015 ft | 487 kts | 193° |
| 2026-05-07 19:14 | 47.56591 | 44.21001 | 36023 ft | 488 kts | 193° |
| 2026-05-07 19:15 | 47.49996 | 44.18647 | 36026 ft | 488 kts | 193° |
| 2026-05-07 19:15 | 47.43397 | 44.16297 | 36022 ft | 488 kts | 193° |
| 2026-05-07 19:16 | 47.36787 | 44.13951 | 36019 ft | 489 kts | 193° |
| 2026-05-07 19:16 | 47.30178 | 44.11611 | 36026 ft | 489 kts | 193° |
| 2026-05-07 19:17 | 47.23555 | 44.09271 | 36028 ft | 489 kts | 193° |
| 2026-05-07 19:17 | 47.16937 | 44.06953 | 36026 ft | 489 kts | 194° |
| 2026-05-07 19:18 | 47.10307 | 44.04629 | 36029 ft | 489 kts | 193° |
| 2026-05-07 19:18 | 47.03683 | 44.02299 | 36032 ft | 489 kts | 193° |
| 2026-05-07 19:19 | 46.97102 | 43.99999 | 36037 ft | 489 kts | 193° |
| 2026-05-07 19:19 | 46.90478 | 43.97754 | 36036 ft | 489 kts | 193° |
| 2026-05-07 19:20 | 46.83862 | 43.95464 | 36041 ft | 489 kts | 193° |
| 2026-05-07 19:20 | 46.77241 | 43.93190 | 36044 ft | 489 kts | 193° |
| 2026-05-07 19:21 | 46.70620 | 43.90935 | 36045 ft | 489 kts | 193° |
| 2026-05-07 19:21 | 46.63998 | 43.88662 | 36052 ft | 489 kts | 193° |
| 2026-05-07 19:22 | 46.57378 | 43.86396 | 36050 ft | 489 kts | 193° |
| 2026-05-07 19:22 | 46.50749 | 43.84140 | 36054 ft | 489 kts | 193° |
| 2026-05-07 19:23 | 46.44111 | 43.81922 | 36059 ft | 489 kts | 193° |
| 2026-05-07 19:23 | 46.37489 | 43.79663 | 36059 ft | 489 kts | 193° |
| 2026-05-07 19:24 | 46.30856 | 43.77426 | 36068 ft | 489 kts | 193° |
| 2026-05-07 19:24 | 46.24272 | 43.75222 | 36072 ft | 489 kts | 193° |
| 2026-05-07 19:25 | 46.17639 | 43.72992 | 36075 ft | 488 kts | 192° |
| 2026-05-07 19:25 | 46.11010 | 43.70764 | 36068 ft | 489 kts | 193° |
| 2026-05-07 19:26 | 46.04379 | 43.68549 | 36076 ft | 489 kts | 193° |
| 2026-05-07 19:26 | 45.97728 | 43.66398 | 36081 ft | 489 kts | 191° |
| 2026-05-07 19:27 | 45.91047 | 43.64507 | 36085 ft | 489 kts | 190° |
| 2026-05-07 19:27 | 45.84361 | 43.62658 | 36082 ft | 490 kts | 190° |
| 2026-05-07 19:28 | 45.77715 | 43.60775 | 36084 ft | 490 kts | 191° |
| 2026-05-07 19:28 | 45.71017 | 43.58901 | 36089 ft | 490 kts | 191° |
| 2026-05-07 19:29 | 45.64336 | 43.57012 | 36094 ft | 490 kts | 190° |
| 2026-05-07 19:29 | 45.57641 | 43.55128 | 36097 ft | 490 kts | 190° |
| 2026-05-07 19:30 | 45.50960 | 43.53267 | 36102 ft | 490 kts | 191° |
| 2026-05-07 19:30 | 45.44272 | 43.51391 | 36112 ft | 489 kts | 190° |
| 2026-05-07 19:31 | 45.37588 | 43.49541 | 36111 ft | 489 kts | 190° |
| 2026-05-07 19:31 | 45.30901 | 43.47690 | 36116 ft | 489 kts | 190° |
| 2026-05-07 19:32 | 45.24216 | 43.45834 | 36121 ft | 490 kts | 190° |
| 2026-05-07 19:32 | 45.17527 | 43.43981 | 36116 ft | 490 kts | 190° |
| 2026-05-07 19:33 | 45.10837 | 43.42135 | 36118 ft | 489 kts | 190° |
| 2026-05-07 19:33 | 45.04152 | 43.40888 | 36129 ft | 487 kts | 181° |
| 2026-05-07 19:34 | 44.97369 | 43.40691 | 36128 ft | 487 kts | 180° |
| 2026-05-07 19:34 | 44.90590 | 43.40343 | 36125 ft | 488 kts | 182° |
| 2026-05-07 19:35 | 44.83814 | 43.39872 | 36123 ft | 487 kts | 181° |
| 2026-05-07 19:35 | 44.77041 | 43.39438 | 36141 ft | 488 kts | 181° |
| 2026-05-07 19:36 | 44.70258 | 43.39016 | 36132 ft | 487 kts | 182° |
| 2026-05-07 19:36 | 44.63479 | 43.38587 | 36132 ft | 488 kts | 181° |
| 2026-05-07 19:37 | 44.57846 | 43.38210 | 36147 ft | 487 kts | 181° |
| 2026-05-07 19:37 | 44.51062 | 43.37788 | 36132 ft | 488 kts | 181° |
| 2026-05-07 19:38 | 44.44286 | 43.37391 | 36144 ft | 488 kts | 182° |
| 2026-05-07 19:38 | 44.37502 | 43.36990 | 36148 ft | 487 kts | 181° |
| 2026-05-07 19:39 | 44.30731 | 43.36575 | 36147 ft | 487 kts | 181° |
| 2026-05-07 19:39 | 44.23957 | 43.36159 | 36148 ft | 487 kts | 181° |
| 2026-05-07 19:40 | 44.17171 | 43.35750 | 36147 ft | 487 kts | 181° |
| 2026-05-07 19:40 | 44.10390 | 43.35345 | 36153 ft | 487 kts | 181° |
| 2026-05-07 19:41 | 44.03619 | 43.34955 | 36150 ft | 487 kts | 181° |
| 2026-05-07 19:41 | 43.96850 | 43.34546 | 36147 ft | 487 kts | 181° |
| 2026-05-07 19:42 | 43.90116 | 43.34148 | 36146 ft | 486 kts | 181° |
| 2026-05-07 19:42 | 43.83350 | 43.33735 | 36151 ft | 486 kts | 181° |
| 2026-05-07 19:43 | 43.76594 | 43.33350 | 36143 ft | 486 kts | 181° |
| 2026-05-07 19:43 | 43.69843 | 43.32964 | 36145 ft | 485 kts | 181° |
| 2026-05-07 19:44 | 43.63102 | 43.32583 | 36147 ft | 485 kts | 181° |
| 2026-05-07 19:44 | 43.56359 | 43.32208 | 36143 ft | 484 kts | 181° |
| 2026-05-07 19:45 | 43.49629 | 43.31840 | 36151 ft | 484 kts | 181° |
| 2026-05-07 19:45 | 43.42896 | 43.31441 | 36154 ft | 483 kts | 182° |
| 2026-05-07 19:46 | 43.36178 | 43.31057 | 36165 ft | 482 kts | 182° |
| 2026-05-07 19:46 | 43.29473 | 43.30680 | 36167 ft | 482 kts | 182° |
| 2026-05-07 19:47 | 43.22771 | 43.30286 | 36174 ft | 482 kts | 182° |
| 2026-05-07 19:47 | 43.16082 | 43.29890 | 36167 ft | 481 kts | 182° |
| 2026-05-07 19:48 | 43.09433 | 43.29522 | 36170 ft | 481 kts | 182° |
| 2026-05-07 19:48 | 43.02756 | 43.29131 | 36178 ft | 480 kts | 182° |
| 2026-05-07 19:49 | 42.96082 | 43.28753 | 36171 ft | 480 kts | 182° |
| 2026-05-07 19:49 | 42.89414 | 43.28798 | 36186 ft | 479 kts | 167° |
| 2026-05-07 19:50 | 42.86284 | 43.30289 | 36209 ft | 478 kts | 155° |
| 2026-05-07 19:50 | 42.83297 | 43.32308 | 36214 ft | 480 kts | 154° |
| 2026-05-07 19:50 | 42.77159 | 43.35920 | 36193 ft | 480 kts | 160° |
| 2026-05-07 19:51 | 42.70844 | 43.38903 | 36199 ft | 481 kts | 161° |
| 2026-05-07 19:51 | 42.64536 | 43.41936 | 36200 ft | 481 kts | 160° |
| 2026-05-07 19:52 | 42.58235 | 43.45002 | 36197 ft | 481 kts | 162° |
| 2026-05-07 19:52 | 42.51856 | 43.47720 | 36199 ft | 480 kts | 164° |
| 2026-05-07 19:53 | 42.45455 | 43.50307 | 36202 ft | 480 kts | 164° |
| 2026-05-07 19:53 | 42.39066 | 43.52899 | 36204 ft | 479 kts | 164° |
| 2026-05-07 19:54 | 42.32681 | 43.55507 | 36205 ft | 479 kts | 164° |
| 2026-05-07 19:54 | 42.26305 | 43.58127 | 36210 ft | 478 kts | 164° |
| 2026-05-07 19:55 | 42.19974 | 43.60750 | 36207 ft | 478 kts | 164° |
| 2026-05-07 19:55 | 42.13603 | 43.63358 | 36210 ft | 477 kts | 165° |
| 2026-05-07 19:56 | 42.07214 | 43.65773 | 36222 ft | 475 kts | 172° |
| 2026-05-07 19:56 | 42.00645 | 43.66613 | 36215 ft | 474 kts | 178° |
| 2026-05-07 19:57 | 41.94074 | 43.67353 | 36222 ft | 474 kts | 175° |
| 2026-05-07 19:57 | 41.87508 | 43.68339 | 36223 ft | 474 kts | 175° |
| 2026-05-07 19:58 | 41.81001 | 43.69296 | 36221 ft | 473 kts | 176° |
| 2026-05-07 19:58 | 41.74460 | 43.70239 | 36225 ft | 472 kts | 175° |
| 2026-05-07 19:59 | 41.67925 | 43.71162 | 36223 ft | 472 kts | 176° |
| 2026-05-07 19:59 | 41.61403 | 43.72113 | 36223 ft | 471 kts | 176° |
| 2026-05-07 20:00 | 41.54899 | 43.73045 | 36226 ft | 470 kts | 176° |
| 2026-05-07 20:00 | 41.48398 | 43.73983 | 36230 ft | 469 kts | 176° |
| 2026-05-07 20:01 | 41.41907 | 43.74933 | 36232 ft | 469 kts | 176° |
| 2026-05-07 20:01 | 41.35420 | 43.75891 | 36228 ft | 469 kts | 176° |
| 2026-05-07 20:02 | 41.28984 | 43.76793 | 36230 ft | 468 kts | 176° |
| 2026-05-07 20:02 | 41.22508 | 43.77705 | 36226 ft | 468 kts | 176° |
| 2026-05-07 20:03 | 41.16036 | 43.78618 | 36223 ft | 467 kts | 176° |
| 2026-05-07 20:03 | 41.09571 | 43.79580 | 36217 ft | 467 kts | 176° |
| 2026-05-07 20:04 | 41.03112 | 43.80559 | 36218 ft | 466 kts | 176° |
| 2026-05-07 20:04 | 40.96664 | 43.81533 | 36213 ft | 466 kts | 176° |
| 2026-05-07 20:05 | 40.90262 | 43.82482 | 36216 ft | 465 kts | 176° |
| 2026-05-07 20:05 | 40.83832 | 43.83431 | 36212 ft | 464 kts | 176° |
| 2026-05-07 20:06 | 40.77449 | 43.84365 | 36215 ft | 464 kts | 176° |
| 2026-05-07 20:06 | 40.71037 | 43.85315 | 36204 ft | 463 kts | 177° |
| 2026-05-07 20:07 | 40.64620 | 43.86142 | 36208 ft | 462 kts | 178° |
| 2026-05-07 20:07 | 40.58199 | 43.86945 | 35851 ft | 464 kts | 178° |
| 2026-05-07 20:08 | 40.54985 | 43.87351 | 35562 ft | 463 kts | 178° |
| 2026-05-07 20:08 | 40.51779 | 43.87759 | 35081 ft | 463 kts | 178° |
| 2026-05-07 20:08 | 40.48582 | 43.88171 | 34416 ft | 461 kts | 178° |
| 2026-05-07 20:08 | 40.45394 | 43.88585 | 33643 ft | 459 kts | 178° |
| 2026-05-07 20:09 | 40.42227 | 43.89030 | 32844 ft | 458 kts | 174° |
| 2026-05-07 20:09 | 40.39172 | 43.90272 | 32070 ft | 465 kts | 156° |
| 2026-05-07 20:09 | 40.36558 | 43.92810 | 31338 ft | 473 kts | 137° |
| 2026-05-07 20:10 | 40.33378 | 44.00427 | 29729 ft | 484 kts | 116° |
| 2026-05-07 20:10 | 40.32040 | 44.04487 | 28803 ft | 483 kts | 119° |
| 2026-05-07 20:10 | 40.30497 | 44.08363 | 27916 ft | 478 kts | 123° |
| 2026-05-07 20:10 | 40.28815 | 44.12095 | 27054 ft | 474 kts | 124° |
| 2026-05-07 20:11 | 40.27102 | 44.15763 | 26227 ft | 470 kts | 124° |
| 2026-05-07 20:11 | 40.25417 | 44.19406 | 25434 ft | 466 kts | 124° |
| 2026-05-07 20:11 | 40.23788 | 44.22988 | 24636 ft | 462 kts | 123° |
| 2026-05-07 20:11 | 40.22151 | 44.26580 | 23916 ft | 457 kts | 123° |
| 2026-05-07 20:12 | 40.20555 | 44.30118 | 23506 ft | 444 kts | 122° |
| 2026-05-07 20:12 | 40.19035 | 44.33539 | 23352 ft | 425 kts | 123° |
| 2026-05-07 20:12 | 40.17572 | 44.36791 | 23336 ft | 405 kts | 123° |
| 2026-05-07 20:12 | 40.16180 | 44.39890 | 23322 ft | 386 kts | 123° |
| 2026-05-07 20:13 | 40.14852 | 44.42859 | 23260 ft | 370 kts | 123° |
| 2026-05-07 20:13 | 40.13584 | 44.45702 | 23184 ft | 355 kts | 123° |
| 2026-05-07 20:13 | 40.12375 | 44.48429 | 23142 ft | 339 kts | 123° |
| 2026-05-07 20:13 | 40.11227 | 44.51044 | 23088 ft | 324 kts | 123° |
| 2026-05-07 20:14 | 40.10125 | 44.53544 | 22961 ft | 312 kts | 124° |
| 2026-05-07 20:14 | 40.09034 | 44.55980 | 22562 ft | 309 kts | 124° |
| 2026-05-07 20:14 | 40.07948 | 44.58394 | 22146 ft | 307 kts | 124° |
| 2026-05-07 20:14 | 40.06869 | 44.60785 | 21738 ft | 305 kts | 124° |
| 2026-05-07 20:15 | 40.05796 | 44.63159 | 21327 ft | 303 kts | 124° |
| 2026-05-07 20:15 | 40.04727 | 44.65515 | 20941 ft | 301 kts | 124° |
| 2026-05-07 20:15 | 40.03677 | 44.67824 | 20549 ft | 299 kts | 124° |
| 2026-05-07 20:15 | 40.02527 | 44.70051 | 20170 ft | 294 kts | 129° |
| 2026-05-07 20:16 | 40.01689 | 44.72469 | 19792 ft | 297 kts | 99° |
| 2026-05-07 20:16 | 40.01902 | 44.75160 | 19375 ft | 299 kts | 66° |
| 2026-05-07 20:16 | 40.03119 | 44.77314 | 18948 ft | 297 kts | 34° |
| 2026-05-07 20:16 | 40.04956 | 44.78349 | 18533 ft | 292 kts | 3° |
| 2026-05-07 20:17 | 40.06953 | 44.78183 | 18047 ft | 288 kts | 343° |
| 2026-05-07 20:17 | 40.08810 | 44.77267 | 17580 ft | 283 kts | 327° |
| 2026-05-07 20:17 | 40.10370 | 44.75753 | 17166 ft | 277 kts | 310° |
| 2026-05-07 20:17 | 40.11560 | 44.73803 | 16763 ft | 273 kts | 300° |
| 2026-05-07 20:18 | 40.12425 | 44.71621 | 16366 ft | 268 kts | 285° |
| 2026-05-07 20:18 | 40.12684 | 44.69260 | 15994 ft | 261 kts | 266° |
| 2026-05-07 20:18 | 40.12568 | 44.66890 | 15574 ft | 261 kts | 264° |
| 2026-05-07 20:18 | 40.12499 | 44.64523 | 15208 ft | 260 kts | 267° |
| 2026-05-07 20:19 | 40.12514 | 44.62166 | 14859 ft | 259 kts | 270° |
| 2026-05-07 20:19 | 40.12582 | 44.59828 | 14495 ft | 257 kts | 270° |
| 2026-05-07 20:19 | 40.12660 | 44.57525 | 14142 ft | 256 kts | 271° |
| 2026-05-07 20:19 | 40.12762 | 44.55213 | 13773 ft | 255 kts | 271° |
| 2026-05-07 20:20 | 40.12682 | 44.52917 | 13380 ft | 250 kts | 252° |
| 2026-05-07 20:20 | 40.11865 | 44.50959 | 12946 ft | 248 kts | 226° |
| 2026-05-07 20:20 | 40.10502 | 44.49593 | 12489 ft | 249 kts | 207° |
| 2026-05-07 20:20 | 40.08854 | 44.48899 | 12075 ft | 250 kts | 187° |
| 2026-05-07 20:21 | 40.07121 | 44.49050 | 11663 ft | 252 kts | 164° |
| 2026-05-07 20:21 | 40.05565 | 44.50098 | 11254 ft | 255 kts | 140° |
| 2026-05-07 20:21 | 40.04462 | 44.51899 | 10872 ft | 256 kts | 116° |
| 2026-05-07 20:21 | 40.04014 | 44.54135 | 10482 ft | 256 kts | 94° |
| 2026-05-07 20:22 | 40.03970 | 44.56463 | 10084 ft | 257 kts | 91° |
| 2026-05-07 20:22 | 40.03920 | 44.58792 | 9707 ft | 255 kts | 93° |
| 2026-05-07 20:22 | 40.03815 | 44.61096 | 9368 ft | 253 kts | 95° |
| 2026-05-07 20:22 | 40.03712 | 44.63337 | 9219 ft | 242 kts | 91° |
| 2026-05-07 20:23 | 40.03676 | 44.65506 | 8931 ft | 238 kts | 91° |
| 2026-05-07 20:23 | 40.03633 | 44.67632 | 8588 ft | 235 kts | 91° |
| 2026-05-07 20:23 | 40.03587 | 44.69737 | 8346 ft | 228 kts | 91° |
| 2026-05-07 20:23 | 40.03540 | 44.71766 | 8143 ft | 218 kts | 91° |
| 2026-05-07 20:24 | 40.03493 | 44.73688 | 8012 ft | 205 kts | 91° |
| 2026-05-07 20:24 | 40.03447 | 44.75453 | 7934 ft | 183 kts | 91° |
| 2026-05-07 20:24 | 40.03428 | 44.77125 | 7999 ft | 191 kts | 79° |
| 2026-05-07 20:24 | 40.04098 | 44.78661 | 8048 ft | 207 kts | 33° |
| 2026-05-07 20:25 | 40.05459 | 44.79208 | 8037 ft | 206 kts | 357° |
| 2026-05-07 20:25 | 40.06412 | 44.79121 | 8065 ft | 214 kts | 353° |
| 2026-05-07 20:25 | 40.08406 | 44.78857 | 8009 ft | 214 kts | 352° |
| 2026-05-07 20:25 | 40.09370 | 44.78601 | 8004 ft | 213 kts | 345° |
| 2026-05-07 20:26 | 40.10786 | 44.78081 | 8002 ft | 211 kts | 343° |
| 2026-05-07 20:26 | 40.12197 | 44.77563 | 7993 ft | 210 kts | 344° |
| 2026-05-07 20:26 | 40.13601 | 44.77063 | 8020 ft | 207 kts | 342° |
| 2026-05-07 20:26 | 40.14699 | 44.76019 | 8149 ft | 194 kts | 298° |
| 2026-05-07 20:27 | 40.14946 | 44.74293 | 8298 ft | 199 kts | 270° |
| 2026-05-07 20:27 | 40.14916 | 44.72439 | 8344 ft | 211 kts | 268° |
| 2026-05-07 20:27 | 40.14878 | 44.70479 | 8156 ft | 216 kts | 268° |
| 2026-05-07 20:27 | 40.14844 | 44.68549 | 7904 ft | 211 kts | 270° |
| 2026-05-07 20:28 | 40.14840 | 44.66635 | 7533 ft | 210 kts | 270° |
| 2026-05-07 20:28 | 40.14840 | 44.64773 | 7184 ft | 204 kts | 271° |
| 2026-05-07 20:28 | 40.14860 | 44.62937 | 6775 ft | 201 kts | 271° |
| 2026-05-07 20:28 | 40.14845 | 44.61105 | 6313 ft | 200 kts | 269° |
| 2026-05-07 20:29 | 40.14812 | 44.59321 | 5937 ft | 194 kts | 270° |
| 2026-05-07 20:29 | 40.14831 | 44.57596 | 5597 ft | 183 kts | 273° |
| 2026-05-07 20:29 | 40.14862 | 44.55995 | 5312 ft | 172 kts | 272° |
| 2026-05-07 20:29 | 40.14856 | 44.54458 | 4945 ft | 166 kts | 271° |
| 2026-05-07 20:30 | 40.14832 | 44.52964 | 4585 ft | 162 kts | 270° |
| 2026-05-07 20:30 | 40.14808 | 44.51540 | 4251 ft | 156 kts | 271° |
| 2026-05-07 20:30 | 40.14813 | 44.50114 | 4004 ft | 160 kts | 272° |
| 2026-05-07 20:30 | 40.14809 | 44.48645 | 3838 ft | 162 kts | 270° |
| 2026-05-07 20:31 | 40.14791 | 44.47163 | 3644 ft | 163 kts | 270° |
| 2026-05-07 20:31 | 40.14771 | 44.45679 | 3446 ft | 163 kts | 270° |
| 2026-05-07 20:31 | 40.14763 | 44.44211 | 3222 ft | 159 kts | 271° |
| 2026-05-07 20:31 | 40.14749 | 44.42777 | 3000 ft | 156 kts | 270° |
| 2026-05-07 20:32 | 40.14739 | 44.41373 | 2852 ft | 151 kts | 271° |
| 2026-05-07 20:32 | 40.14735 | 44.40403 | 2842 ft | 48 kts | 270° |
| 2026-05-07 20:32 | 40.14744 | 44.40073 | 2840 ft | 19 kts | 294° |
| 2026-05-07 20:32 | 40.14840 | 44.40027 | 2838 ft | 7 kts | 356° |
| 2026-05-07 20:33 | 40.14888 | 44.40024 | 2838 ft | 7 kts | 359° |
| 2026-05-07 20:33 | 40.14939 | 44.40024 | 2838 ft | 8 kts | 0° |
| 2026-05-07 20:33 | 40.14987 | 44.40006 | 2837 ft | 7 kts | 343° |
| 2026-05-07 20:33 | 40.15047 | 44.40003 | 2837 ft | 10 kts | 0° |
| 2026-05-07 20:34 | 40.15088 | 44.40004 | 2837 ft | 0 kts | 1° |
| 2026-05-07 20:34 | 40.15097 | 44.40004 | 2837 ft | 0 kts | 1° |